createdAt,value
2022-11-25T00:01:30.256Z,31.98
2022-11-25T00:04:00.653Z,35.10
2022-11-25T00:06:30.569Z,26.70
2022-11-25T00:09:00.030Z,33.42
2022-11-25T00:11:28.238Z,35.63
2022-11-25T00:13:56.447Z,26.92
2022-11-25T00:16:26.842Z,23.57
2022-11-25T00:18:56.316Z,27.10
2022-11-25T00:21:29.343Z,23.48
2022-11-25T00:24:02.950Z,30.83
2022-11-25T00:26:33.015Z,25.02
2022-11-25T00:29:02.186Z,21.90
2022-11-25T00:31:31.638Z,27.25
2022-11-25T00:33:59.047Z,30.17
2022-11-25T00:36:28.335Z,24.30
2022-11-25T00:39:01.583Z,23.45
2022-11-25T00:41:48.351Z,24.47
2022-11-25T00:44:36.473Z,20.13
2022-11-25T00:47:12.025Z,23.50
2022-11-25T00:49:42.053Z,36.08
2022-11-25T00:52:10.617Z,30.48
2022-11-25T00:54:38.081Z,25.03
2022-11-25T00:57:05.522Z,30.42
2022-11-25T00:59:32.703Z,24.70
2022-11-25T01:02:00.206Z,39.40
2022-11-25T01:04:27.569Z,26.00
2022-11-25T01:06:56.844Z,24.93
2022-11-25T01:09:24.129Z,27.48
2022-11-25T01:11:52.192Z,32.15
2022-11-25T01:14:20.582Z,34.45
2022-11-25T01:16:51.059Z,23.05
2022-11-25T01:19:20.051Z,21.07
2022-11-25T01:21:50.921Z,25.15
2022-11-25T01:24:18.788Z,31.88
2022-11-25T01:26:46.749Z,34.22
2022-11-25T01:29:19.383Z,40.15
2022-11-25T01:31:48.667Z,25.67
2022-11-25T01:34:23.216Z,24.92
2022-11-25T01:36:50.896Z,27.23
2022-11-25T01:39:30.144Z,22.83
2022-11-25T01:42:00.408Z,26.42
2022-11-25T01:44:29.152Z,30.27
2022-11-25T01:47:06.987Z,30.20
2022-11-25T01:49:37.312Z,26.35
2022-11-25T01:52:10.613Z,28.48
2022-11-25T01:54:56.377Z,12.00
2022-11-25T01:57:46.832Z,35.73
2022-11-25T02:00:15.304Z,29.52
2022-11-25T02:02:46.820Z,31.90
2022-11-25T02:05:19.872Z,33.35
2022-11-25T02:07:51.555Z,37.33
2022-11-25T02:10:24.630Z,32.83
2022-11-25T02:12:52.741Z,28.15
2022-11-25T02:15:20.701Z,36.15
2022-11-25T02:17:48.059Z,34.55
2022-11-25T02:20:21.751Z,30.58
2022-11-25T02:23:26.024Z,32.40
2022-11-25T02:25:55.172Z,28.98
2022-11-25T02:28:26.512Z,31.10
2022-11-25T02:30:54.192Z,24.40
2022-11-25T02:33:22.875Z,37.80
2022-11-25T02:35:56.344Z,27.57
2022-11-25T02:38:49.514Z,33.22
2022-11-25T02:41:32.863Z,35.28
2022-11-25T02:44:04.712Z,30.92
2022-11-25T02:46:31.828Z,31.13
2022-11-25T02:49:10.498Z,28.43
2022-11-25T02:51:40.332Z,34.00
2022-11-25T02:54:09.635Z,26.55
2022-11-25T02:56:37.717Z,33.67
2022-11-25T02:59:05.438Z,30.15
2022-11-25T03:01:32.995Z,30.33
2022-11-25T03:04:00.590Z,20.83
2022-11-25T03:06:29.363Z,32.63
2022-11-25T03:08:59.578Z,33.45
2022-11-25T03:11:48.643Z,25.05
2022-11-25T03:14:16.204Z,28.70
2022-11-25T03:16:44.056Z,28.15
2022-11-25T03:19:13.137Z,19.73
2022-11-25T03:21:40.156Z,19.38
2022-11-25T03:24:07.843Z,27.23
2022-11-25T03:26:35.205Z,27.20
2022-11-25T03:29:02.692Z,27.55
2022-11-25T03:31:31.846Z,29.88
2022-11-25T03:34:01.401Z,15.75
2022-11-25T03:36:28.500Z,21.17
2022-11-25T03:38:58.649Z,17.67
2022-11-25T03:41:35.446Z,22.17
2022-11-25T03:44:03.398Z,19.20
2022-11-25T03:46:32.679Z,16.48
2022-11-25T03:49:02.526Z,12.27
2022-11-25T03:51:30.108Z,14.37
2022-11-25T03:53:59.088Z,7.43
2022-11-25T03:56:26.835Z,10.38
2022-11-25T03:58:54.132Z,8.13
2022-11-25T04:01:22.801Z,9.90
2022-11-25T04:03:52.968Z,9.17
2022-11-25T04:06:22.431Z,10.02
2022-11-25T04:08:55.373Z,12.85
2022-11-25T04:11:42.801Z,10.00
2022-11-25T04:14:11.688Z,13.27
2022-11-25T04:16:38.912Z,7.90
2022-11-25T04:19:06.680Z,7.97
2022-11-25T04:21:33.791Z,10.95
2022-11-25T04:24:01.221Z,9.50
2022-11-25T04:26:30.322Z,10.57
2022-11-25T04:28:57.618Z,8.57
2022-11-25T04:31:24.793Z,8.63
2022-11-25T04:33:52.870Z,7.40
2022-11-25T04:36:22.290Z,8.18
2022-11-25T04:38:50.294Z,8.48
2022-11-25T04:41:17.995Z,7.53
2022-11-25T04:43:46.449Z,6.63
2022-11-25T04:46:24.506Z,8.35
2022-11-25T04:48:52.183Z,7.60
2022-11-25T04:51:20.934Z,6.53
2022-11-25T04:53:51.890Z,6.53
2022-11-25T04:56:22.513Z,6.88
2022-11-25T04:59:10.853Z,9.82
2022-11-25T05:01:42.034Z,6.97
2022-11-25T05:04:20.576Z,5.22
2022-11-25T05:06:48.383Z,11.70
2022-11-25T05:09:16.538Z,7.38
2022-11-25T05:11:45.339Z,6.45
2022-11-25T05:14:14.925Z,5.65
2022-11-25T05:16:44.087Z,6.03
2022-11-25T05:19:11.617Z,10.20
2022-11-25T05:21:41.862Z,6.40
2022-11-25T05:24:09.338Z,5.95
2022-11-25T05:26:37.962Z,5.55
2022-11-25T05:29:05.875Z,9.75
2022-11-25T05:31:34.612Z,8.07
2022-11-25T05:34:03.318Z,7.65
2022-11-25T05:36:34.470Z,5.85
2022-11-25T05:39:01.784Z,11.55
2022-11-25T05:41:54.600Z,7.03
2022-11-25T05:44:23.270Z,8.13
2022-11-25T05:46:52.739Z,5.97
2022-11-25T05:49:22.229Z,6.18
2022-11-25T05:51:50.954Z,5.40
2022-11-25T05:54:22.063Z,6.15
2022-11-25T05:56:52.250Z,10.63
2022-11-25T05:59:37.754Z,13.05
2022-11-25T06:02:09.873Z,7.28
2022-11-25T06:04:37.211Z,11.35
2022-11-25T06:07:04.612Z,10.80
2022-11-25T06:09:32.419Z,6.30
2022-11-25T06:12:00.003Z,9.32
2022-11-25T06:14:26.925Z,12.38
2022-11-25T06:16:54.992Z,11.20
2022-11-25T06:19:31.014Z,8.85
2022-11-25T06:21:58.721Z,12.33
2022-11-25T06:24:27.701Z,15.45
2022-11-25T06:27:02.565Z,10.95
2022-11-25T06:29:29.482Z,9.05
2022-11-25T06:31:56.249Z,12.10
2022-11-25T06:34:34.578Z,8.80
2022-11-25T06:37:04.079Z,9.63
2022-11-25T06:39:30.816Z,9.43
2022-11-25T06:41:57.753Z,11.80
2022-11-25T06:44:24.473Z,12.05
2022-11-25T06:46:51.355Z,11.33
2022-11-25T06:49:18.429Z,14.48
2022-11-25T06:51:45.207Z,12.30
2022-11-25T06:54:11.983Z,11.93
2022-11-25T06:56:39.696Z,10.82
2022-11-25T06:59:07.731Z,10.43
2022-11-25T07:01:34.701Z,14.60
2022-11-25T07:04:04.679Z,10.30
2022-11-25T07:06:33.352Z,13.80
2022-11-25T07:09:00.829Z,11.30
2022-11-25T07:11:39.873Z,16.33
2022-11-25T07:14:10.834Z,10.75
2022-11-25T07:16:39.928Z,16.63
2022-11-25T07:19:07.240Z,11.77
2022-11-25T07:21:36.225Z,11.63
2022-11-25T07:24:05.380Z,13.07
2022-11-25T07:26:35.117Z,14.18
2022-11-25T07:29:29.345Z,17.63
2022-11-25T07:31:55.879Z,11.85
2022-11-25T07:34:23.180Z,22.83
2022-11-25T07:36:50.779Z,12.20
2022-11-25T07:39:23.023Z,13.07
2022-11-25T07:41:51.231Z,17.25
2022-11-25T07:44:18.289Z,16.80
2022-11-25T07:46:52.019Z,13.40
2022-11-25T07:49:22.349Z,14.00
2022-11-25T07:51:53.255Z,12.10
2022-11-25T07:54:21.779Z,16.33
2022-11-25T07:56:49.806Z,10.75
2022-11-25T07:59:19.993Z,21.02
2022-11-25T08:01:49.532Z,14.47
2022-11-25T08:04:20.456Z,17.15
2022-11-25T08:06:50.395Z,16.35
2022-11-25T08:09:22.694Z,17.05
2022-11-25T08:11:49.894Z,19.77
2022-11-25T08:14:17.476Z,15.73
2022-11-25T08:16:44.350Z,14.20
2022-11-25T08:19:14.141Z,19.95
2022-11-25T08:21:41.865Z,14.75
2022-11-25T08:24:20.060Z,15.60
2022-11-25T08:26:47.488Z,10.60
2022-11-25T08:29:16.975Z,17.13
2022-11-25T08:31:44.081Z,19.45
2022-11-25T08:34:19.118Z,11.20
2022-11-25T08:36:48.726Z,18.35
2022-11-25T08:39:44.253Z,14.10
2022-11-25T08:42:06.156Z,10.57
2022-11-25T08:44:33.071Z,12.20
2022-11-25T08:46:59.968Z,9.38
2022-11-25T08:49:27.255Z,11.02
2022-11-25T08:51:54.280Z,14.77
2022-11-25T08:54:21.048Z,13.85
2022-11-25T08:56:48.040Z,20.10
2022-11-25T08:59:14.939Z,17.85
2022-11-25T09:01:41.821Z,9.32
2022-11-25T09:04:08.826Z,10.47
2022-11-25T09:06:35.889Z,15.93
2022-11-25T09:09:02.838Z,11.23
2022-11-25T09:11:29.844Z,15.88
2022-11-25T09:13:56.856Z,13.50
2022-11-25T09:16:25.780Z,10.70
2022-11-25T09:18:56.161Z,8.85
2022-11-25T09:21:24.911Z,8.73
2022-11-25T09:23:54.588Z,10.55
2022-11-25T09:26:24.909Z,9.68
2022-11-25T09:28:52.310Z,11.27
2022-11-25T09:31:20.624Z,15.93
2022-11-25T09:33:47.594Z,11.20
2022-11-25T09:36:16.605Z,11.10
2022-11-25T09:38:46.822Z,10.07
2022-11-25T09:42:14.880Z,9.53
2022-11-25T09:45:22.385Z,10.93
2022-11-25T09:48:10.034Z,14.65
2022-11-25T09:50:58.088Z,16.25
2022-11-25T09:53:42.976Z,11.57
2022-11-25T09:56:27.697Z,10.60
2022-11-25T09:59:21.057Z,15.57
2022-11-25T10:02:00.468Z,13.52
2022-11-25T10:04:34.261Z,17.40
2022-11-25T10:07:04.393Z,16.42
2022-11-25T10:09:35.822Z,6.30
2022-11-25T10:12:23.142Z,16.13
2022-11-25T10:14:53.365Z,18.15
2022-11-25T10:17:36.547Z,16.60
2022-11-25T10:20:24.277Z,13.57
2022-11-25T10:23:15.007Z,16.43
2022-11-25T10:25:47.099Z,15.50
2022-11-25T10:28:20.198Z,14.32
2022-11-25T10:31:19.381Z,21.92
2022-11-25T10:33:49.249Z,18.70
2022-11-25T10:36:24.623Z,21.77
2022-11-25T10:39:03.758Z,9.02
2022-11-25T10:41:37.930Z,13.30
2022-11-25T10:44:12.947Z,16.00
2022-11-25T10:47:15.336Z,16.77
2022-11-25T10:50:16.148Z,13.47
2022-11-25T10:53:00.733Z,13.90
2022-11-25T10:55:33.978Z,10.60
2022-11-25T10:58:25.963Z,10.98
2022-11-25T11:01:07.455Z,14.60
2022-11-25T11:03:35.033Z,16.77
2022-11-25T11:06:01.869Z,16.73
2022-11-25T11:08:38.689Z,18.88
2022-11-25T11:11:19.490Z,9.73
2022-11-25T11:13:47.791Z,10.77
2022-11-25T11:16:34.107Z,19.73
2022-11-25T11:19:01.611Z,16.85
2022-11-25T11:21:41.796Z,9.27
2022-11-25T11:24:36.137Z,10.73
2022-11-25T11:27:24.453Z,15.70
2022-11-25T11:30:15.795Z,8.97
2022-11-25T11:32:45.953Z,10.00
2022-11-25T11:35:25.616Z,9.60
2022-11-25T11:37:58.730Z,9.60
2022-11-25T11:40:47.314Z,10.65
2022-11-25T11:43:35.398Z,9.97
2022-11-25T11:46:18.727Z,15.73
2022-11-25T11:49:10.026Z,13.90
2022-11-25T11:51:52.463Z,18.00
2022-11-25T11:54:32.860Z,16.52
2022-11-25T11:57:05.167Z,11.30
2022-11-25T11:59:32.319Z,9.45
2022-11-25T12:02:25.348Z,8.95
2022-11-25T12:05:01.036Z,14.95
2022-11-25T12:07:54.346Z,23.30
2022-11-25T12:10:24.770Z,16.30
2022-11-25T12:13:26.973Z,19.85
2022-11-25T12:16:15.872Z,11.00
2022-11-25T12:19:04.512Z,14.95
2022-11-25T12:21:41.546Z,13.82
2022-11-25T12:24:39.558Z,19.90
2022-11-25T12:27:25.790Z,18.55
2022-11-25T12:30:15.261Z,9.48
2022-11-25T12:32:53.378Z,16.35
2022-11-25T12:35:42.094Z,15.10
2022-11-25T12:38:30.161Z,7.80
2022-11-25T12:41:39.044Z,14.05
2022-11-25T12:44:44.699Z,12.13
2022-11-25T12:47:12.468Z,13.07
2022-11-25T12:49:43.882Z,11.55
2022-11-25T12:52:38.628Z,20.37
2022-11-25T12:55:14.008Z,21.85
2022-11-25T12:58:23.462Z,21.58
2022-11-25T13:01:03.352Z,20.13
2022-11-25T13:03:56.621Z,14.35
2022-11-25T13:06:58.984Z,15.70
2022-11-25T13:09:54.083Z,12.13
2022-11-25T13:12:54.453Z,13.57
2022-11-25T13:15:45.158Z,13.02
2022-11-25T13:18:22.692Z,26.15
2022-11-25T13:20:53.992Z,13.87
2022-11-25T13:23:26.975Z,16.98
2022-11-25T13:26:17.859Z,13.82
2022-11-25T13:28:47.911Z,17.83
2022-11-25T13:31:15.024Z,23.05
2022-11-25T13:33:46.617Z,20.60
2022-11-25T13:36:43.665Z,12.23
2022-11-25T13:39:29.921Z,14.73
2022-11-25T13:42:16.538Z,16.73
2022-11-25T13:44:57.099Z,15.95
2022-11-25T13:47:38.224Z,19.40
2022-11-25T13:50:22.250Z,22.08
2022-11-25T13:53:05.313Z,21.60
2022-11-25T13:55:36.543Z,16.55
2022-11-25T13:58:13.798Z,13.73
2022-11-25T14:01:08.992Z,19.13
2022-11-25T14:03:45.140Z,23.05
2022-11-25T14:06:51.126Z,21.02
2022-11-25T14:09:28.089Z,22.38
2022-11-25T14:12:05.653Z,24.17
2022-11-25T14:14:50.576Z,21.67
2022-11-25T14:17:35.308Z,21.33
2022-11-25T14:20:41.256Z,23.88
2022-11-25T14:23:22.691Z,19.77
2022-11-25T14:25:55.457Z,19.38
2022-11-25T14:28:43.963Z,29.07
2022-11-25T14:31:23.231Z,28.80
2022-11-25T14:34:01.606Z,21.85
2022-11-25T14:36:33.785Z,21.73
2022-11-25T14:39:08.917Z,16.58
2022-11-25T14:41:56.011Z,25.83
2022-11-25T14:44:29.036Z,20.83
2022-11-25T14:46:58.463Z,25.70
2022-11-25T14:49:59.515Z,25.35
2022-11-25T14:52:36.520Z,21.58
2022-11-25T14:55:07.425Z,23.87
2022-11-25T14:57:37.739Z,30.40
2022-11-25T15:00:18.183Z,37.63
2022-11-25T15:03:03.022Z,30.35
2022-11-25T15:05:41.082Z,30.17
2022-11-25T15:08:14.741Z,30.93
2022-11-25T15:10:55.314Z,30.98
2022-11-25T15:14:01.417Z,24.88
2022-11-25T15:16:40.119Z,27.00
2022-11-25T15:19:20.046Z,25.30
2022-11-25T15:22:21.492Z,26.60
2022-11-25T15:24:50.207Z,24.10
2022-11-25T15:27:25.245Z,28.10
2022-11-25T15:29:53.856Z,17.63
2022-11-25T15:32:32.709Z,27.70
2022-11-25T15:35:01.862Z,20.13
2022-11-25T15:37:29.574Z,26.10
2022-11-25T15:40:40.782Z,23.00
2022-11-25T15:43:24.770Z,23.15
2022-11-25T15:45:55.536Z,24.95
2022-11-25T15:48:31.134Z,29.50
2022-11-25T15:51:23.929Z,26.50
2022-11-25T15:53:59.357Z,34.22
2022-11-25T15:56:27.958Z,29.20
2022-11-25T15:58:58.769Z,22.88
2022-11-25T16:01:29.651Z,25.87
2022-11-25T16:04:11.342Z,26.13
2022-11-25T16:06:53.764Z,18.60
2022-11-25T16:09:22.726Z,17.10
2022-11-25T16:11:49.600Z,24.88
2022-11-25T16:14:27.120Z,29.40
2022-11-25T16:17:10.389Z,40.97
2022-11-25T16:19:44.752Z,32.22
2022-11-25T16:22:17.693Z,26.73
2022-11-25T16:25:01.874Z,32.00
2022-11-25T16:27:29.861Z,86.00
2022-11-25T16:30:06.253Z,82.15
2022-11-25T16:32:33.592Z,46.88
2022-11-25T16:35:18.529Z,30.90
2022-11-25T16:37:49.098Z,27.08
2022-11-25T16:40:17.478Z,28.27
2022-11-25T16:42:52.947Z,24.25
2022-11-25T16:45:22.722Z,22.58
2022-11-25T16:47:49.861Z,18.40
2022-11-25T16:50:18.757Z,25.42
2022-11-25T16:52:45.636Z,28.73
2022-11-25T16:55:12.698Z,36.08
2022-11-25T16:57:40.631Z,20.85
2022-11-25T17:00:13.930Z,21.70
2022-11-25T17:02:41.003Z,26.52
2022-11-25T17:05:18.668Z,26.30
2022-11-25T17:07:45.708Z,20.58
2022-11-25T17:10:12.901Z,24.60
2022-11-25T17:12:42.171Z,25.70
2022-11-25T17:15:15.484Z,20.48
2022-11-25T17:17:44.418Z,27.00
2022-11-25T17:20:21.673Z,25.42
2022-11-25T17:22:49.134Z,31.40
2022-11-25T17:25:16.484Z,28.33
2022-11-25T17:27:46.220Z,28.55
2022-11-25T17:30:30.114Z,22.70
2022-11-25T17:33:19.210Z,25.27
2022-11-25T17:35:46.398Z,24.27
2022-11-25T17:38:19.234Z,29.98
2022-11-25T17:40:50.730Z,23.73
2022-11-25T17:43:22.897Z,24.57
2022-11-25T17:45:50.459Z,29.50
2022-11-25T17:48:22.219Z,24.02
2022-11-25T17:50:49.265Z,36.40
2022-11-25T17:53:16.682Z,37.45
2022-11-25T17:55:44.072Z,39.03
2022-11-25T17:58:16.046Z,37.05
2022-11-25T18:00:47.552Z,32.88
2022-11-25T18:03:20.693Z,27.58
2022-11-25T18:05:48.349Z,35.10
2022-11-25T18:08:15.789Z,23.67
2022-11-25T18:10:46.173Z,26.95
2022-11-25T18:13:15.548Z,25.30
2022-11-25T18:15:45.282Z,33.05
2022-11-25T18:18:24.891Z,27.83
2022-11-25T18:20:56.090Z,27.27
2022-11-25T18:23:24.776Z,31.90
2022-11-25T18:25:53.620Z,24.20
2022-11-25T18:28:26.028Z,21.42
2022-11-25T18:30:57.328Z,19.05
2022-11-25T18:33:24.380Z,28.10
2022-11-25T18:35:51.251Z,34.83
2022-11-25T18:38:18.639Z,38.75
2022-11-25T18:40:50.411Z,36.75
2022-11-25T18:43:31.140Z,31.60
2022-11-25T18:45:59.444Z,29.83
2022-11-25T18:48:31.525Z,30.90
2022-11-25T18:51:02.340Z,32.70
2022-11-25T18:53:33.706Z,29.40
2022-11-25T18:56:08.929Z,27.90
2022-11-25T18:58:38.354Z,28.43
2022-11-25T19:01:20.015Z,26.85
2022-11-25T19:03:48.767Z,31.77
2022-11-25T19:06:22.635Z,21.92
2022-11-25T19:08:53.595Z,32.88
2022-11-25T19:11:32.291Z,23.37
2022-11-25T19:14:06.206Z,27.95
2022-11-25T19:16:35.058Z,27.20
2022-11-25T19:19:06.014Z,31.25
2022-11-25T19:21:33.823Z,23.75
2022-11-25T19:24:01.232Z,23.00
2022-11-25T19:26:35.166Z,27.65
2022-11-25T19:29:12.278Z,27.70
2022-11-25T19:31:41.612Z,24.25
2022-11-25T19:34:20.801Z,27.50
2022-11-25T19:36:48.542Z,24.63
2022-11-25T19:39:18.706Z,29.60
2022-11-25T19:41:46.618Z,28.42
2022-11-25T19:44:23.579Z,35.63
2022-11-25T19:49:42.305Z,44.77
2022-11-25T19:52:21.824Z,28.45
2022-11-25T19:54:49.374Z,27.65
2022-11-25T19:57:24.476Z,29.45
2022-11-25T19:59:52.347Z,23.38
2022-11-25T20:02:27.891Z,32.47
2022-11-25T20:04:57.297Z,33.65
2022-11-25T20:07:31.747Z,24.48
2022-11-25T20:10:19.303Z,30.38
2022-11-25T20:12:46.432Z,32.05
2022-11-25T20:15:13.850Z,30.20
2022-11-25T20:17:48.972Z,26.63
2022-11-25T20:20:28.838Z,30.58
2022-11-25T20:23:27.343Z,30.05
2022-11-25T20:25:54.887Z,25.42
2022-11-25T20:28:24.542Z,25.07
2022-11-25T20:30:53.467Z,32.15
2022-11-25T20:33:24.268Z,20.65
2022-11-25T20:36:00.202Z,29.20
2022-11-25T20:38:28.643Z,24.60
2022-11-25T20:40:58.785Z,28.87
2022-11-25T20:43:39.782Z,26.95
2022-11-25T20:46:23.269Z,24.65
2022-11-25T20:48:59.610Z,35.92
2022-11-25T20:51:27.096Z,41.35
2022-11-25T20:53:58.540Z,29.57
2022-11-25T20:56:31.458Z,25.55
2022-11-25T20:58:58.842Z,32.60
2022-11-25T21:01:26.007Z,49.13
2022-11-25T21:03:54.037Z,30.92
2022-11-25T21:06:27.662Z,32.50
2022-11-25T21:08:58.372Z,31.73
2022-11-25T21:11:26.585Z,31.55
2022-11-25T21:13:54.299Z,31.17
2022-11-25T21:16:21.997Z,25.83
2022-11-25T21:18:49.306Z,22.13
2022-11-25T21:21:19.814Z,26.75
2022-11-25T21:23:48.196Z,27.75
2022-11-25T21:26:21.221Z,39.20
2022-11-25T21:28:51.413Z,34.75
2022-11-25T21:31:24.580Z,24.20
2022-11-25T21:33:56.654Z,29.60
2022-11-25T21:36:28.871Z,30.48
2022-11-25T21:39:07.010Z,28.30
2022-11-25T21:41:35.562Z,29.95
2022-11-25T21:44:06.114Z,27.87
2022-11-25T21:46:33.525Z,27.15
2022-11-25T21:49:00.702Z,32.05
2022-11-25T21:51:31.194Z,27.88
2022-11-25T21:53:58.502Z,28.52
2022-11-25T21:56:28.764Z,31.20
2022-11-25T21:58:56.629Z,20.33
2022-11-25T22:01:24.264Z,34.83
2022-11-25T22:03:51.511Z,28.33
2022-11-25T22:06:22.135Z,37.55
2022-11-25T22:08:49.538Z,25.40
2022-11-25T22:11:19.981Z,29.75
2022-11-25T22:13:48.499Z,25.45
2022-11-25T22:16:18.837Z,34.05
2022-11-25T22:18:45.799Z,26.98
2022-11-25T22:21:14.581Z,32.43
2022-11-25T22:23:42.692Z,23.58
2022-11-25T22:26:31.869Z,28.55
2022-11-25T22:29:00.113Z,30.10
2022-11-25T22:31:28.475Z,29.83
2022-11-25T22:33:55.881Z,65.57
2022-11-25T22:36:33.883Z,52.38
2022-11-25T22:39:12.989Z,40.38
2022-11-25T22:41:41.562Z,44.65
2022-11-25T22:44:17.555Z,34.50
2022-11-25T22:46:45.058Z,31.40
2022-11-25T22:49:34.424Z,30.83
2022-11-25T22:52:01.712Z,39.30
2022-11-25T22:54:28.553Z,32.08
2022-11-25T22:56:56.927Z,34.08
2022-11-25T22:59:24.068Z,24.67
2022-11-25T23:01:51.016Z,37.50
2022-11-25T23:04:19.893Z,23.88
2022-11-25T23:06:47.661Z,26.15
2022-11-25T23:09:17.950Z,25.33
2022-11-25T23:11:45.911Z,30.13
2022-11-25T23:14:13.123Z,29.60
2022-11-25T23:16:41.986Z,31.42
2022-11-25T23:19:16.770Z,19.13
2022-11-25T23:21:45.530Z,23.83
2022-11-25T23:24:15.664Z,21.40
2022-11-25T23:26:43.385Z,20.45
2022-11-25T23:29:10.179Z,25.95
2022-11-25T23:31:38.906Z,31.70
2022-11-25T23:34:07.229Z,34.15
2022-11-25T23:36:44.731Z,32.77
2022-11-25T23:39:21.404Z,29.00
2022-11-25T23:41:49.129Z,23.23
2022-11-25T23:44:25.349Z,26.55
2022-11-25T23:46:54.899Z,30.83
2022-11-25T23:49:26.904Z,26.63
2022-11-25T23:51:57.207Z,21.75
2022-11-25T23:54:40.206Z,30.90
2022-11-25T23:57:22.020Z,28.10
2022-11-25T23:59:51.013Z,29.80
